Time;durP1;ratioP1;P1;durP2;ratioP2;P2;SDS_P1;SDS_P2;PMS_P1;PMS_P2;Temp;Humidity;BMP_temperature;BMP_pressure;BME280_temperature;BME280_humidity;BME280_pressure;Samples;Min_cycle;Max_cycle;Signal;HPM_P1;HPM_P2
2023/08/31 00:00:44;;;;;;;7.55;3.20;;;11.20;99.90;;;;;;4987611;28;20078;-52
2023/08/31 00:03:10;;;;;;;7.78;3.60;;;11.10;99.90;;;;;;4987952;28;20042;-52
2023/08/31 00:05:43;;;;;;;6.55;3.50;;;11.10;99.90;;;;;;4987489;28;20056;-57
2023/08/31 00:08:09;;;;;;;8.88;3.95;;;11.10;99.90;;;;;;4987992;28;20108;-51
2023/08/31 00:10:35;;;;;;;7.57;3.47;;;11.00;99.90;;;;;;4987477;28;20155;-56
2023/08/31 00:13:06;;;;;;;6.15;3.40;;;10.90;99.90;;;;;;4969071;28;20086;-54
2023/08/31 00:15:34;;;;;;;7.25;3.35;;;11.00;99.90;;;;;;4987758;28;20050;-57
2023/08/31 00:18:00;;;;;;;7.15;3.75;;;10.90;99.90;;;;;;4987308;28;20049;-55
2023/08/31 00:20:26;;;;;;;7.20;3.70;;;12.20;99.90;;;;;;4986465;28;20042;-54
2023/08/31 00:22:52;;;;;;;7.13;3.70;;;10.90;99.90;;;;;;4986864;28;20387;-56
2023/08/31 00:25:18;;;;;;;6.53;3.10;;;10.90;99.90;;;;;;4985583;28;20042;-54
2023/08/31 00:27:47;;;;;;;8.40;3.78;;;10.90;99.90;;;;;;4987589;28;20117;-53
2023/08/31 00:30:14;;;;;;;5.50;3.47;;;10.90;99.90;;;;;;4969183;28;20075;-56
2023/08/31 00:32:42;;;;;;;7.68;3.60;;;10.90;99.90;;;;;;4987707;28;20045;-53
2023/08/31 00:35:10;;;;;;;6.18;3.30;;;10.90;99.90;;;;;;4987007;28;20058;-56
2023/08/31 00:37:36;;;;;;;5.97;3.13;;;10.90;99.90;;;;;;4987085;28;20451;-55
2023/08/31 00:40:04;;;;;;;9.80;3.70;;;10.80;99.90;;;;;;4986338;28;20042;-53
2023/08/31 00:42:30;;;;;;;6.68;3.25;;;10.80;99.90;;;;;;4987510;28;20123;-57
2023/08/31 00:44:56;;;;;;;8.60;3.10;;;10.80;99.90;;;;;;4986675;28;20516;-56
2023/08/31 00:47:22;;;;;;;7.82;3.20;;;10.80;99.90;;;;;;4987173;28;20397;-55
2023/08/31 00:49:49;;;;;;;9.75;3.85;;;11.70;99.90;;;;;;4986873;28;20058;-55
2023/08/31 00:52:15;;;;;;;7.65;3.30;;;10.90;99.90;;;;;;4987296;28;20053;-56
2023/08/31 00:54:42;;;;;;;6.38;3.50;;;10.80;99.90;;;;;;4985484;28;20046;-56
2023/08/31 00:57:08;;;;;;;7.82;3.55;;;10.80;99.90;;;;;;4995576;28;20095;-54
2023/08/31 00:59:34;;;;;;;6.15;3.10;;;10.80;99.90;;;;;;5006285;28;20128;-52
2023/08/31 01:02:16;;;;;;;6.72;3.30;;;10.70;99.90;;;;;;5005696;28;20200;-54
2023/08/31 01:05:02;;;;;;;7.00;3.15;;;10.70;99.90;;;;;;5006498;28;20046;-57
2023/08/31 01:07:57;;;;;;;7.40;2.97;;;10.70;99.90;;;;;;5005438;28;20046;-52
2023/08/31 01:10:31;;;;;;;9.15;3.90;;;10.70;99.90;;;;;;5005245;28;20053;-56
2023/08/31 01:13:03;;;;;;;5.82;2.95;;;10.70;99.90;;;;;;5005877;28;20062;-53
2023/08/31 01:15:31;;;;;;;7.57;3.30;;;10.80;99.90;;;;;;5006224;28;20048;-57
2023/08/31 01:18:00;;;;;;;7.85;3.10;;;10.90;99.90;;;;;;5005562;28;20038;-55
2023/08/31 01:20:58;;;;;;;7.50;3.10;;;10.70;99.90;;;;;;5005213;28;20464;-55
2023/08/31 01:23:29;;;;;;;8.40;3.28;;;10.80;99.90;;;;;;5004526;28;20050;-55
2023/08/31 01:25:54;;;;;;;10.27;3.17;;;12.40;99.90;;;;;;5005974;28;20144;-55
2023/08/31 01:28:20;;;;;;;6.57;2.97;;;10.80;99.90;;;;;;5005801;28;20121;-52
2023/08/31 01:30:46;;;;;;;7.90;3.20;;;10.70;99.90;;;;;;5005500;28;20041;-50
2023/08/31 01:33:12;;;;;;;5.88;2.70;;;10.80;99.90;;;;;;4988607;28;20121;-54
2023/08/31 01:35:52;;;;;;;7.68;2.58;;;10.90;99.90;;;;;;5004751;28;20050;-51
2023/08/31 01:38:24;;;;;;;7.53;2.90;;;10.90;99.90;;;;;;5004655;28;20400;-52
2023/08/31 01:41:03;;;;;;;6.72;2.53;;;10.90;99.90;;;;;;5017688;28;20068;-50
2023/08/31 01:43:31;;;;;;;7.72;2.55;;;10.80;99.90;;;;;;5025042;28;20073;-53
2023/08/31 01:45:58;;;;;;;10.82;2.58;;;10.80;99.90;;;;;;5025122;28;20132;-53
2023/08/31 01:48:24;;;;;;;6.00;2.45;;;10.80;99.90;;;;;;5025221;28;20333;-57
2023/08/31 01:50:49;;;;;;;6.32;2.50;;;10.70;99.90;;;;;;5016621;28;20042;-56
2023/08/31 01:53:15;;;;;;;5.22;2.13;;;10.70;99.90;;;;;;5004463;28;20057;-57
2023/08/31 01:55:40;;;;;;;4.50;2.20;;;10.70;99.90;;;;;;4998551;28;20393;-55
2023/08/31 01:58:06;;;;;;;6.15;2.60;;;10.60;99.90;;;;;;4994239;28;20050;-55
2023/08/31 02:00:34;;;;;;;8.00;2.88;;;10.60;99.90;;;;;;4984775;28;20053;-54
2023/08/31 02:03:00;;;;;;;7.72;2.45;;;10.60;99.90;;;;;;4984309;28;20083;-53
2023/08/31 02:05:26;;;;;;;5.13;2.42;;;12.20;99.90;;;;;;4984956;28;20417;-56
2023/08/31 02:07:52;;;;;;;6.47;2.40;;;10.60;99.90;;;;;;4985260;28;20045;-57
2023/08/31 02:10:17;;;;;;;7.25;2.40;;;10.60;99.90;;;;;;4984517;28;20056;-52
2023/08/31 02:12:43;;;;;;;6.68;3.00;;;10.60;99.90;;;;;;4984445;28;20038;-49
2023/08/31 02:15:09;;;;;;;8.88;3.13;;;10.60;99.90;;;;;;4985519;28;20046;-55
2023/08/31 02:17:35;;;;;;;6.55;2.60;;;10.60;99.90;;;;;;4984769;28;20042;-57
2023/08/31 02:20:02;;;;;;;6.28;2.70;;;10.60;99.90;;;;;;4985285;28;20084;-55
2023/08/31 02:22:31;;;;;;;11.27;3.13;;;10.50;99.90;;;;;;4985389;28;20493;-51
2023/08/31 02:24:56;;;;;;;6.65;2.92;;;10.50;99.90;;;;;;4984592;28;20051;-53
2023/08/31 02:27:22;;;;;;;6.68;2.67;;;10.50;99.90;;;;;;4985132;28;20050;-53
2023/08/31 02:29:48;;;;;;;7.13;3.00;;;11.00;99.90;;;;;;4985479;28;20053;-56
2023/08/31 02:32:13;;;;;;;6.40;2.83;;;10.50;99.90;;;;;;4985393;28;20121;-55
2023/08/31 02:34:39;;;;;;;5.95;2.95;;;10.60;99.90;;;;;;4984198;28;20050;-52
2023/08/31 02:37:04;;;;;;;6.68;2.70;;;10.50;99.90;;;;;;4985221;28;20097;-56
2023/08/31 02:39:30;;;;;;;6.95;2.78;;;10.50;99.90;;;;;;4984281;28;20046;-55
2023/08/31 02:41:56;;;;;;;6.88;3.05;;;10.50;99.90;;;;;;4984780;28;20034;-56
2023/08/31 02:44:21;;;;;;;5.55;2.70;;;10.50;99.90;;;;;;4984305;28;20371;-56
2023/08/31 02:46:47;;;;;;;7.03;3.03;;;10.60;99.90;;;;;;4984951;28;20043;-53
2023/08/31 02:49:13;;;;;;;5.93;2.90;;;10.40;99.90;;;;;;4991081;28;20042;-57
2023/08/31 02:51:39;;;;;;;7.50;2.67;;;10.40;99.90;;;;;;5005873;28;20042;-56
2023/08/31 02:54:04;;;;;;;6.65;2.80;;;10.40;99.90;;;;;;5003586;28;20148;-56
2023/08/31 02:56:30;;;;;;;7.88;2.88;;;10.40;99.90;;;;;;5007695;28;20098;-56
2023/08/31 02:58:56;;;;;;;6.90;2.53;;;11.90;99.90;;;;;;5006369;28;20092;-54
2023/08/31 03:01:23;;;;;;;5.40;2.70;;;10.40;99.90;;;;;;4986156;28;20053;-56
2023/08/31 03:03:49;;;;;;;6.57;2.95;;;10.40;99.90;;;;;;5004213;28;20049;-55
2023/08/31 03:06:15;;;;;;;8.15;2.97;;;10.40;99.90;;;;;;5004568;28;20130;-56
2023/08/31 03:08:41;;;;;;;6.53;2.78;;;10.40;99.90;;;;;;5002911;28;20054;-50
2023/08/31 03:11:06;;;;;;;7.60;2.90;;;10.90;99.90;;;;;;5004112;28;20110;-51
2023/08/31 03:13:32;;;;;;;6.80;2.63;;;10.30;99.90;;;;;;4983300;28;20413;-55
2023/08/31 03:15:59;;;;;;;7.40;2.90;;;10.40;99.90;;;;;;4984624;28;20081;-55
2023/08/31 03:18:25;;;;;;;9.70;3.58;;;10.40;99.90;;;;;;4983965;28;20053;-56
2023/08/31 03:20:50;;;;;;;7.63;3.50;;;10.40;99.90;;;;;;4984796;28;20046;-51
2023/08/31 03:23:16;;;;;;;12.07;5.00;;;10.70;99.90;;;;;;4984523;28;20061;-51
2023/08/31 03:25:42;;;;;;;12.80;6.07;;;10.90;99.90;;;;;;4984350;28;20501;-54
2023/08/31 03:28:08;;;;;;;12.93;6.63;;;10.30;99.90;;;;;;4984162;28;20049;-48
2023/08/31 03:30:34;;;;;;;13.48;6.75;;;10.30;99.90;;;;;;4984742;28;20448;-55
2023/08/31 03:32:59;;;;;;;13.38;6.38;;;10.30;99.90;;;;;;4984429;28;20046;-55
2023/08/31 03:35:28;;;;;;;10.98;6.18;;;10.30;99.90;;;;;;4984204;28;20057;-56
2023/08/31 03:37:54;;;;;;;9.18;6.20;;;10.30;99.90;;;;;;4984690;28;20058;-56
2023/08/31 03:40:20;;;;;;;10.45;6.38;;;10.30;99.90;;;;;;4986219;28;20088;-56
2023/08/31 03:42:46;;;;;;;13.07;6.97;;;10.20;99.90;;;;;;4992646;28;20070;-51
2023/08/31 03:45:12;;;;;;;15.80;6.80;;;10.30;99.90;;;;;;4984599;28;20096;-55
2023/08/31 03:47:37;;;;;;;16.67;7.47;;;10.50;99.90;;;;;;4984324;28;20394;-53
2023/08/31 03:50:04;;;;;;;7.93;6.32;;;10.30;99.90;;;;;;4984488;28;20061;-57
2023/08/31 03:52:30;;;;;;;10.30;6.95;;;10.40;99.90;;;;;;4982170;28;20045;-51
2023/08/31 03:54:55;;;;;;;13.77;7.63;;;10.40;99.90;;;;;;4981617;28;20456;-57
2023/08/31 03:57:21;;;;;;;11.35;7.10;;;11.10;99.90;;;;;;4973548;28;20053;-53
2023/08/31 03:59:47;;;;;;;11.82;7.63;;;10.30;99.90;;;;;;4966315;28;20061;-52
2023/08/31 04:02:12;;;;;;;14.20;7.95;;;10.30;99.90;;;;;;4968224;28;20043;-57
2023/08/31 04:04:38;;;;;;;13.75;7.30;;;10.40;99.90;;;;;;4968332;28;20047;-55
2023/08/31 04:07:04;;;;;;;10.02;6.95;;;10.30;99.90;;;;;;4968099;28;20617;-56
2023/08/31 04:09:30;;;;;;;11.38;7.35;;;10.30;99.90;;;;;;4967092;28;20590;-55
2023/08/31 04:11:56;;;;;;;16.73;7.30;;;10.40;99.90;;;;;;4967951;28;20054;-52
2023/08/31 04:14:21;;;;;;;13.73;7.50;;;10.40;99.90;;;;;;4984064;28;20501;-51
2023/08/31 04:16:50;;;;;;;9.82;7.18;;;10.40;99.90;;;;;;4988103;28;20850;-58
2023/08/31 04:19:16;;;;;;;10.73;7.47;;;10.30;99.90;;;;;;4987419;28;20050;-57
2023/08/31 04:21:43;;;;;;;9.73;6.95;;;10.30;99.90;;;;;;4987489;28;20043;-56
2023/08/31 04:24:09;;;;;;;12.30;7.15;;;10.30;99.90;;;;;;4987083;28;20112;-54
2023/08/31 04:26:34;;;;;;;8.65;7.18;;;10.30;99.90;;;;;;4986985;28;20129;-57
2023/08/31 04:29:01;;;;;;;11.23;7.32;;;10.40;99.90;;;;;;4987514;28;20042;-57
2023/08/31 04:31:26;;;;;;;10.95;7.63;;;10.40;99.90;;;;;;4986782;28;20058;-55
2023/08/31 04:33:53;;;;;;;13.13;7.10;;;10.50;99.90;;;;;;4986896;28;20567;-54
2023/08/31 04:36:20;;;;;;;10.52;7.30;;;10.50;99.90;;;;;;4987081;28;20062;-54
2023/08/31 04:38:47;;;;;;;9.90;7.22;;;10.60;99.90;;;;;;4986419;28;20046;-55
2023/08/31 04:41:12;;;;;;;12.00;7.38;;;10.70;99.90;;;;;;4986883;28;20053;-54
2023/08/31 04:43:38;;;;;;;9.02;6.97;;;10.60;99.90;;;;;;4985464;28;20449;-57
2023/08/31 04:46:04;;;;;;;11.50;8.02;;;11.20;99.90;;;;;;4986588;28;20125;-57
2023/08/31 04:48:30;;;;;;;14.73;7.93;;;10.60;99.90;;;;;;4987109;28;20520;-54
2023/08/31 04:50:57;;;;;;;11.48;7.50;;;10.60;99.90;;;;;;4986575;28;20046;-56
2023/08/31 04:53:22;;;;;;;12.52;7.55;;;10.60;99.90;;;;;;4986814;28;20909;-53
2023/08/31 04:55:48;;;;;;;9.70;7.75;;;10.60;99.90;;;;;;4990718;28;20054;-57
2023/08/31 04:58:14;;;;;;;11.15;7.95;;;10.60;99.90;;;;;;4993921;28;20042;-57
2023/08/31 05:00:39;;;;;;;12.70;7.72;;;10.50;99.90;;;;;;4985887;28;20046;-55
2023/08/31 05:03:05;;;;;;;10.02;8.23;;;10.60;99.90;;;;;;4986688;28;20594;-48
2023/08/31 05:05:31;;;;;;;9.82;7.97;;;10.50;99.90;;;;;;4986318;28;20047;-58
2023/08/31 05:07:57;;;;;;;11.93;8.65;;;10.60;99.90;;;;;;4985508;28;20045;-56
2023/08/31 05:10:22;;;;;;;12.38;9.00;;;10.60;99.90;;;;;;4985776;28;20046;-56
2023/08/31 05:12:48;;;;;;;11.52;9.00;;;10.60;99.90;;;;;;4986581;28;20046;-50
2023/08/31 05:15:14;;;;;;;12.73;8.65;;;10.70;99.90;;;;;;4986313;28;20552;-58
2023/08/31 05:17:39;;;;;;;13.93;9.45;;;10.80;99.90;;;;;;4985799;28;20404;-55
2023/08/31 05:20:09;;;;;;;10.60;9.40;;;10.80;99.90;;;;;;4986425;28;20081;-55
2023/08/31 05:22:35;;;;;;;10.20;9.02;;;10.90;99.90;;;;;;4986063;28;20078;-50
2023/08/31 05:25:01;;;;;;;10.05;8.75;;;10.80;99.90;;;;;;4984434;28;20081;-54
2023/08/31 05:27:27;;;;;;;10.93;8.73;;;10.90;99.90;;;;;;4986232;28;20042;-49
2023/08/31 05:29:52;;;;;;;11.30;9.00;;;10.90;99.90;;;;;;4986723;28;20042;-56
2023/08/31 05:32:18;;;;;;;12.30;9.77;;;11.00;99.90;;;;;;4986148;28;20054;-55
2023/08/31 05:34:43;;;;;;;12.07;9.15;;;10.90;99.90;;;;;;4994188;28;20617;-55
2023/08/31 05:37:09;;;;;;;13.55;9.40;;;10.90;99.90;;;;;;5008227;28;20041;-50
2023/08/31 05:39:35;;;;;;;12.32;9.30;;;10.90;99.90;;;;;;5004785;28;20037;-53
2023/08/31 05:42:01;;;;;;;11.43;9.02;;;10.90;99.90;;;;;;5025267;28;20484;-56
2023/08/31 05:44:26;;;;;;;12.52;9.35;;;11.00;99.90;;;;;;5024997;28;20053;-55
2023/08/31 05:46:52;;;;;;;14.18;10.02;;;11.00;99.90;;;;;;5021225;28;20034;-51
2023/08/31 05:49:18;;;;;;;12.15;9.82;;;11.00;99.90;;;;;;5005494;28;20132;-54
2023/08/31 05:51:43;;;;;;;10.60;9.50;;;11.10;99.90;;;;;;5004803;28;20088;-57
2023/08/31 05:54:11;;;;;;;11.52;9.25;;;11.30;99.90;;;;;;5024358;28;20458;-56
2023/08/31 05:56:39;;;;;;;9.88;7.93;;;11.60;99.90;;;;;;5002374;28;20048;-55
2023/08/31 05:59:05;;;;;;;9.00;8.10;;;11.80;99.90;;;;;;4985709;28;20249;-57
2023/08/31 06:01:31;;;;;;;9.55;7.80;;;11.80;99.90;;;;;;4985302;28;20042;-54
2023/08/31 06:03:57;;;;;;;10.27;7.40;;;12.10;99.90;;;;;;4985662;28;20042;-49
2023/08/31 06:06:23;;;;;;;8.00;6.95;;;12.40;99.90;;;;;;4968220;28;20397;-54
2023/08/31 06:08:48;;;;;;;7.90;6.25;;;12.90;99.90;;;;;;4984193;28;20095;-56
2023/08/31 06:11:14;;;;;;;9.43;6.80;;;12.80;99.90;;;;;;5007856;28;20049;-55
2023/08/31 06:13:40;;;;;;;8.90;6.72;;;13.00;99.90;;;;;;5024697;28;20055;-51
2023/08/31 06:16:06;;;;;;;9.48;7.20;;;13.20;99.90;;;;;;5024634;28;20542;-57
2023/08/31 06:18:31;;;;;;;9.98;6.55;;;13.30;99.90;;;;;;5006526;28;20037;-56
2023/08/31 06:20:57;;;;;;;7.75;5.97;;;13.50;99.90;;;;;;5024260;28;20041;-55
2023/08/31 06:23:23;;;;;;;8.70;6.53;;;13.80;99.90;;;;;;5022751;28;20068;-54
2023/08/31 06:25:48;;;;;;;7.93;5.85;;;13.90;99.90;;;;;;5005614;28;20053;-54
2023/08/31 06:28:14;;;;;;;7.40;5.53;;;13.90;99.90;;;;;;5023959;28;20038;-56
2023/08/31 06:30:46;;;;;;;9.48;6.35;;;14.00;99.90;;;;;;5005915;28;20037;-56
2023/08/31 06:33:12;;;;;;;8.25;6.03;;;14.00;99.90;;;;;;5023369;28;20073;-55
2023/08/31 06:35:37;;;;;;;6.45;5.13;;;14.30;99.90;;;;;;5023364;28;20408;-51
2023/08/31 06:38:03;;;;;;;8.77;5.43;;;14.30;99.90;;;;;;5023307;28;20041;-55
2023/08/31 06:40:29;;;;;;;7.55;4.88;;;14.60;99.90;;;;;;5023905;28;20057;-51
2023/08/31 06:42:54;;;;;;;8.80;4.85;;;14.90;99.90;;;;;;5023620;28;20589;-56
2023/08/31 06:45:20;;;;;;;6.28;4.30;;;15.10;99.90;;;;;;5023269;28;20100;-56
2023/08/31 06:47:46;;;;;;;5.75;3.75;;;15.40;99.90;;;;;;5023651;28;20038;-55
2023/08/31 06:50:11;;;;;;;6.22;3.90;;;15.10;99.90;;;;;;5017597;28;20045;-55
2023/08/31 06:52:37;;;;;;;5.43;3.72;;;15.30;99.90;;;;;;5015834;28;20056;-56
2023/08/31 06:55:03;;;;;;;7.60;3.90;;;15.40;99.90;;;;;;5006743;28;20133;-56
2023/08/31 06:57:28;;;;;;;5.38;3.60;;;15.60;99.90;;;;;;5006284;28;20042;-57
2023/08/31 06:59:54;;;;;;;6.63;3.75;;;15.70;99.90;;;;;;4985110;28;20115;-55
2023/08/31 07:02:22;;;;;;;6.82;3.53;;;15.50;99.90;;;;;;5004482;28;21055;-55
2023/08/31 07:04:48;;;;;;;7.60;3.78;;;15.60;99.90;;;;;;5004423;28;20050;-56
2023/08/31 07:07:14;;;;;;;6.15;3.60;;;15.40;99.90;;;;;;5004302;28;20046;-57
2023/08/31 07:09:44;;;;;;;7.93;3.78;;;15.40;99.90;;;;;;5002450;28;20069;-54
2023/08/31 07:12:10;;;;;;;7.15;3.58;;;15.50;99.90;;;;;;5005169;28;20920;-57
2023/08/31 07:14:35;;;;;;;7.00;3.55;;;15.50;99.90;;;;;;5019763;28;20042;-53
2023/08/31 07:17:01;;;;;;;6.68;3.45;;;15.80;99.90;;;;;;5002972;28;20116;-54
2023/08/31 07:19:27;;;;;;;4.75;3.13;;;15.90;99.90;;;;;;5003851;28;20065;-54
2023/08/31 07:21:54;;;;;;;6.43;3.42;;;16.10;99.90;;;;;;5012791;28;20103;-57
2023/08/31 07:24:21;;;;;;;4.13;2.88;;;16.20;99.90;;;;;;5004703;28;20042;-55
2023/08/31 07:26:47;;;;;;;7.18;3.28;;;16.40;99.90;;;;;;5003221;28;20082;-57
2023/08/31 07:29:13;;;;;;;5.90;2.80;;;16.30;99.90;;;;;;5003697;28;20077;-53
2023/08/31 07:31:38;;;;;;;6.40;2.78;;;16.20;99.90;;;;;;5003204;28;20062;-52
2023/08/31 07:34:04;;;;;;;7.43;2.88;;;16.40;99.90;;;;;;5023939;28;20361;-57
2023/08/31 07:36:30;;;;;;;5.05;2.53;;;16.60;99.90;;;;;;5001024;28;20479;-58
2023/08/31 07:38:56;;;;;;;7.35;2.30;;;16.60;99.90;;;;;;5009959;28;20067;-57
2023/08/31 07:41:22;;;;;;;5.30;2.17;;;16.40;99.90;;;;;;5026599;28;20045;-52
2023/08/31 07:43:49;;;;;;;6.47;2.45;;;16.40;99.90;;;;;;5025825;28;20501;-56
2023/08/31 07:46:15;;;;;;;5.50;2.00;;;16.50;99.90;;;;;;5020442;28;20049;-58
2023/08/31 07:48:41;;;;;;;3.17;1.70;;;16.50;99.90;;;;;;5012832;28;20447;-57
2023/08/31 07:51:07;;;;;;;7.30;1.95;;;16.70;99.90;;;;;;4994684;28;20401;-57
2023/08/31 07:53:32;;;;;;;5.63;1.90;;;16.90;99.90;;;;;;5006664;28;20103;-49
2023/08/31 07:55:58;;;;;;;4.32;1.55;;;16.90;99.90;;;;;;5002689;28;20046;-56
2023/08/31 07:58:23;;;;;;;5.20;1.75;;;17.10;99.90;;;;;;5001142;28;20052;-57
2023/08/31 08:00:53;;;;;;;3.17;1.17;;;17.30;99.90;;;;;;5006501;28;20058;-57
2023/08/31 08:03:19;;;;;;;3.63;1.40;;;17.10;99.90;;;;;;5023472;28;20069;-51
2023/08/31 08:05:44;;;;;;;9.05;2.13;;;16.40;99.90;;;;;;5025111;28;20037;-51
2023/08/31 08:08:10;;;;;;;5.82;1.80;;;15.90;99.90;;;;;;4998300;28;20077;-49
2023/08/31 08:10:36;;;;;;;4.20;1.60;;;15.60;99.90;;;;;;4986878;28;20078;-49
2023/08/31 08:13:03;;;;;;;10.95;1.90;;;15.80;99.90;;;;;;4987222;28;20080;-54
2023/08/31 08:15:28;;;;;;;7.80;1.40;;;16.10;99.90;;;;;;5015235;28;20208;-50
2023/08/31 08:17:54;;;;;;;4.00;1.42;;;16.50;99.90;;;;;;5025950;28;20123;-51
2023/08/31 08:20:20;;;;;;;3.15;1.13;;;16.70;99.90;;;;;;5025940;28;20553;-51
2023/08/31 08:22:47;;;;;;;3.45;1.23;;;17.00;99.90;;;;;;5025597;28;20140;-49
2023/08/31 08:25:13;;;;;;;3.47;1.02;;;17.50;99.90;;;;;;5025453;28;20377;-52
2023/08/31 08:27:38;;;;;;;4.38;0.95;;;17.40;99.90;;;;;;5008281;28;20053;-55
2023/08/31 08:30:04;;;;;;;2.55;0.73;;;17.50;99.90;;;;;;5021075;28;20046;-47
2023/08/31 08:32:30;;;;;;;3.50;0.98;;;17.80;99.90;;;;;;5016670;28;20042;-53
2023/08/31 08:34:55;;;;;;;3.63;0.88;;;18.00;99.90;;;;;;5014307;28;20508;-58
2023/08/31 08:37:21;;;;;;;3.55;1.00;;;18.00;99.90;;;;;;5015174;28;20033;-50
2023/08/31 08:39:50;;;;;;;4.35;0.70;;;18.00;99.90;;;;;;5006238;28;20497;-62
2023/08/31 08:42:18;;;;;;;4.78;0.68;;;18.00;99.90;;;;;;5009302;28;20092;-62
2023/08/31 08:44:44;;;;;;;4.60;0.95;;;17.90;99.90;;;;;;5004087;28;20048;-51
2023/08/31 08:47:12;;;;;;;3.30;0.80;;;17.80;99.90;;;;;;4991773;28;20041;-54
2023/08/31 08:49:38;;;;;;;3.53;0.80;;;17.60;99.90;;;;;;5017902;28;20084;-58
2023/08/31 08:52:04;;;;;;;2.63;0.68;;;17.40;99.90;;;;;;5017206;28;20041;-55
2023/08/31 08:54:30;;;;;;;3.38;0.90;;;17.30;99.90;;;;;;5007150;28;20059;-55
2023/08/31 08:56:56;;;;;;;5.10;0.88;;;17.60;99.90;;;;;;4996855;28;20045;-61
2023/08/31 08:59:22;;;;;;;3.78;0.73;;;18.00;99.90;;;;;;4997851;28;20049;-55
2023/08/31 09:01:48;;;;;;;3.95;0.80;;;18.40;99.90;;;;;;5019054;28;20033;-54
2023/08/31 09:04:14;;;;;;;3.90;0.90;;;18.40;99.90;;;;;;5015433;28;20164;-56
2023/08/31 09:06:40;;;;;;;3.40;0.77;;;18.20;99.90;;;;;;5004856;28;20408;-62
2023/08/31 09:09:08;;;;;;;5.57;1.02;;;18.00;99.90;;;;;;5006618;28;20342;-57
2023/08/31 09:11:35;;;;;;;5.50;0.90;;;17.70;99.90;;;;;;5014976;28;20100;-61
2023/08/31 09:14:17;;;;;;;2.75;0.70;;;17.60;99.90;;;;;;4989330;28;20058;-56
2023/08/31 09:16:47;;;;;;;3.83;0.88;;;17.60;99.90;;;;;;4987747;28;20042;-53
2023/08/31 09:19:20;;;;;;;3.58;0.68;;;17.70;99.90;;;;;;5004513;28;20068;-57
2023/08/31 09:21:47;;;;;;;2.05;0.70;;;17.80;99.90;;;;;;5003731;28;20084;-57
2023/08/31 09:24:13;;;;;;;3.15;0.60;;;17.70;99.90;;;;;;4993268;28;20142;-56
2023/08/31 09:27:00;;;;;;;3.75;0.75;;;17.70;99.90;;;;;;5001620;28;20137;-55
2023/08/31 09:29:25;;;;;;;3.05;0.68;;;17.60;99.90;;;;;;4991175;28;20054;-54
2023/08/31 09:31:51;;;;;;;3.40;0.90;;;17.60;99.90;;;;;;4996292;28;20037;-51
2023/08/31 09:34:18;;;;;;;1.95;0.80;;;17.80;99.90;;;;;;5004455;28;20037;-60
2023/08/31 09:36:44;;;;;;;4.50;0.70;;;18.00;99.90;;;;;;5003638;28;20037;-58
2023/08/31 09:39:11;;;;;;;2.53;0.70;;;18.30;99.90;;;;;;5003945;28;20125;-62
2023/08/31 09:41:59;;;;;;;3.58;0.70;;;18.50;99.90;;;;;;5004490;28;20120;-55
2023/08/31 09:44:24;;;;;;;4.15;0.70;;;18.80;99.90;;;;;;5003688;28;20441;-61
2023/08/31 09:46:51;;;;;;;3.75;0.70;;;18.90;99.90;;;;;;5004051;28;20041;-54
2023/08/31 09:49:20;;;;;;;3.97;0.70;;;19.00;99.90;;;;;;4986681;28;20069;-56
2023/08/31 09:51:48;;;;;;;3.45;0.93;;;19.00;99.90;;;;;;5003785;28;20085;-54
2023/08/31 09:54:16;;;;;;;3.40;0.90;;;18.80;99.90;;;;;;5011179;28;20124;-53
2023/08/31 09:56:44;;;;;;;3.05;0.65;;;18.50;99.90;;;;;;5000788;28;20057;-55
2023/08/31 09:59:15;;;;;;;2.88;0.80;;;18.10;99.90;;;;;;4966446;28;20046;-63
2023/08/31 10:01:42;;;;;;;2.25;0.70;;;17.80;99.90;;;;;;4984620;28;20090;-57
2023/08/31 10:04:08;;;;;;;1.92;0.60;;;17.20;99.90;;;;;;4984516;28;20054;-64
2023/08/31 10:06:43;;;;;;;1.83;0.50;;;16.50;99.90;;;;;;4983780;28;20058;-54
2023/08/31 10:09:10;;;;;;;3.80;0.70;;;15.90;99.90;;;;;;4982371;28;20085;-55
2023/08/31 10:11:37;;;;;;;3.33;0.52;;;15.60;99.90;;;;;;4992967;28;20104;-59
2023/08/31 10:14:04;;;;;;;3.15;0.70;;;15.30;99.90;;;;;;5012901;28;20114;-60
2023/08/31 10:16:30;;;;;;;3.47;0.70;;;15.30;99.90;;;;;;5012095;28;20095;-58
2023/08/31 10:18:56;;;;;;;4.10;0.70;;;15.20;99.90;;;;;;5023401;28;20045;-60
2023/08/31 10:21:22;;;;;;;3.00;0.70;;;15.30;99.90;;;;;;5023764;28;20037;-59
2023/08/31 10:23:49;;;;;;;2.83;0.60;;;15.50;99.90;;;;;;5021767;28;20051;-54
2023/08/31 10:26:31;;;;;;;2.35;0.50;;;15.40;99.90;;;;;;5023226;28;20049;-54
2023/08/31 10:28:59;;;;;;;2.80;0.65;;;15.80;99.90;;;;;;5022847;28;20089;-56
2023/08/31 10:31:29;;;;;;;1.95;0.80;;;16.10;99.90;;;;;;5023090;28;20060;-55
2023/08/31 10:33:59;;;;;;;2.97;0.75;;;16.30;99.90;;;;;;5022881;28;20071;-63
2023/08/31 10:36:40;;;;;;;2.17;0.80;;;16.40;99.90;;;;;;5005937;28;20133;-59
2023/08/31 10:39:17;;;;;;;1.88;0.70;;;16.40;99.90;;;;;;5002547;28;20101;-66
2023/08/31 10:41:53;;;;;;;2.08;0.70;;;16.20;99.90;;;;;;4988110;28;20042;-54
2023/08/31 10:44:20;;;;;;;1.13;0.60;;;16.20;99.90;;;;;;5003519;28;20645;-61
2023/08/31 10:46:46;;;;;;;3.63;0.80;;;16.30;99.90;;;;;;5003292;28;20389;-57
2023/08/31 10:49:14;;;;;;;2.22;0.80;;;16.70;99.90;;;;;;5002932;28;20460;-60
2023/08/31 10:51:42;;;;;;;3.42;1.15;;;17.10;99.90;;;;;;4985150;28;20392;-48
2023/08/31 10:54:13;;;;;;;3.17;0.90;;;17.40;99.90;;;;;;5003234;28;20540;-53
2023/08/31 10:56:57;;;;;;;2.83;0.68;;;17.70;99.90;;;;;;4997562;28;20069;-58
2023/08/31 10:59:24;;;;;;;2.03;0.50;;;18.10;99.90;;;;;;4983708;28;20093;-51
2023/08/31 11:02:02;;;;;;;1.50;0.50;;;18.20;99.90;;;;;;4996388;28;20220;-56
2023/08/31 11:04:29;;;;;;;3.83;0.77;;;18.30;99.90;;;;;;5002136;28;20061;-62
2023/08/31 11:07:15;;;;;;;1.75;0.70;;;18.30;99.90;;;;;;5002079;28;20046;-50
2023/08/31 11:09:42;;;;;;;3.50;0.60;;;18.50;99.90;;;;;;5005386;28;20077;-58
2023/08/31 11:12:08;;;;;;;2.15;0.70;;;18.70;99.90;;;;;;5007339;28;20045;-50
2023/08/31 11:14:34;;;;;;;1.77;0.60;;;18.80;99.90;;;;;;5004405;28;20073;-60
2023/08/31 11:17:00;;;;;;;2.85;0.70;;;18.90;99.90;;;;;;5007400;28;20042;-56
2023/08/31 11:19:27;;;;;;;2.30;0.65;;;19.00;99.90;;;;;;5018185;28;20392;-50
2023/08/31 11:21:54;;;;;;;4.40;1.35;;;19.10;99.90;;;;;;5006939;28;20064;-62
2023/08/31 11:24:21;;;;;;;2.70;0.60;;;19.20;99.90;;;;;;5007138;28;20034;-62
2023/08/31 11:26:56;;;;;;;1.40;0.70;;;19.30;99.90;;;;;;5016962;28;20053;-62
2023/08/31 11:29:21;;;;;;;4.80;0.98;;;19.40;99.90;;;;;;4987864;28;20584;-61
2023/08/31 11:31:47;;;;;;;2.53;0.60;;;19.50;99.90;;;;;;4987459;28;20129;-58
2023/08/31 11:34:17;;;;;;;4.22;0.63;;;19.70;99.90;;;;;;5002194;28;20479;-59
2023/08/31 11:36:44;;;;;;;3.08;0.57;;;20.00;99.90;;;;;;5005916;28;20038;-63
2023/08/31 11:39:10;;;;;;;1.80;0.60;;;20.10;99.90;;;;;;5006619;28;20160;-49
2023/08/31 11:41:41;;;;;;;1.00;0.40;;;20.00;99.90;;;;;;5007078;28;20038;-57
2023/08/31 11:44:09;;;;;;;2.60;0.70;;;19.80;99.90;;;;;;5006796;28;20057;-53
2023/08/31 11:46:36;;;;;;;2.22;0.70;;;19.50;99.90;;;;;;5003943;28;20114;-50
2023/08/31 11:49:04;;;;;;;1.95;0.60;;;19.30;99.90;;;;;;4998225;28;20088;-52
2023/08/31 11:51:30;;;;;;;1.38;0.60;;;19.40;99.90;;;;;;5005799;28;20060;-55
2023/08/31 11:53:58;;;;;;;2.33;0.70;;;19.50;99.90;;;;;;4988248;28;20049;-57
2023/08/31 11:56:24;;;;;;;5.20;1.10;;;19.70;99.90;;;;;;5000245;28;20779;-59
2023/08/31 11:58:51;;;;;;;1.48;0.68;;;19.80;99.90;;;;;;4991639;28;20073;-61
2023/08/31 12:01:21;;;;;;;1.30;0.60;;;19.80;99.90;;;;;;5008904;28;20052;-60
2023/08/31 12:03:47;;;;;;;1.45;0.60;;;19.90;99.90;;;;;;5026239;28;20045;-58
2023/08/31 12:06:20;;;;;;;2.85;0.73;;;19.80;99.90;;;;;;5024302;28;20106;-49
2023/08/31 12:08:45;;;;;;;4.03;0.82;;;20.00;99.90;;;;;;5009098;28;20053;-59
2023/08/31 12:11:12;;;;;;;1.42;0.60;;;20.20;99.90;;;;;;5018618;28;20044;-57
2023/08/31 12:13:37;;;;;;;3.40;0.60;;;20.10;98.60;;;;;;5026840;28;20191;-60
2023/08/31 12:16:04;;;;;;;2.45;0.75;;;20.00;98.50;;;;;;5025808;28;20741;-58
2023/08/31 12:18:37;;;;;;;0.82;0.50;;;19.90;99.20;;;;;;5026077;28;20052;-53
2023/08/31 12:21:03;;;;;;;2.40;0.70;;;19.80;97.10;;;;;;5025058;28;20132;-61
2023/08/31 12:23:29;;;;;;;3.25;0.95;;;19.50;97.40;;;;;;5024593;28;20096;-59
2023/08/31 12:25:55;;;;;;;2.92;0.63;;;19.30;98.20;;;;;;5026046;28;20045;-59
2023/08/31 12:28:23;;;;;;;4.35;1.08;;;19.00;98.90;;;;;;5016690;28;20049;-53
2023/08/31 12:30:56;;;;;;;4.03;0.68;;;18.90;99.50;;;;;;4995777;28;20045;-53
2023/08/31 12:33:22;;;;;;;4.30;0.98;;;18.60;99.50;;;;;;5005264;28;20058;-57
2023/08/31 12:35:48;;;;;;;2.35;0.80;;;18.30;99.90;;;;;;4991283;28;20072;-55
2023/08/31 12:38:14;;;;;;;2.42;0.75;;;18.00;99.90;;;;;;5003918;28;20041;-60
2023/08/31 12:40:39;;;;;;;4.03;0.90;;;17.70;99.90;;;;;;5004450;28;20046;-57
2023/08/31 12:43:05;;;;;;;1.25;0.68;;;17.40;99.90;;;;;;5018259;28;20075;-64
2023/08/31 12:45:31;;;;;;;2.70;0.90;;;17.10;99.90;;;;;;5010134;28;20140;-54